createdAt,value
2024-01-07T00:00:36.698Z,-3.08
2024-01-07T00:03:25.795Z,-3.15
2024-01-07T00:05:54.766Z,-3.03
2024-01-07T00:08:23.949Z,-2.86
2024-01-07T00:10:54.698Z,-2.84
2024-01-07T00:13:25.308Z,-2.97
2024-01-07T00:15:55.076Z,-3.01
2024-01-07T00:18:25.584Z,-3.17
2024-01-07T00:20:54.702Z,-2.98
2024-01-07T00:23:24.237Z,-3.01
2024-01-07T00:25:53.105Z,-2.91
2024-01-07T00:28:22.251Z,-2.95
2024-01-07T00:30:52.567Z,-3.06
2024-01-07T00:33:22.029Z,-3.23
2024-01-07T00:35:50.902Z,-3.14
2024-01-07T00:38:20.514Z,-3.24
2024-01-07T00:40:49.787Z,-3.19
2024-01-07T00:43:19.611Z,-3.11
2024-01-07T00:45:48.537Z,-3.01
2024-01-07T00:48:19.191Z,-3.03
2024-01-07T00:50:48.583Z,-3.05
2024-01-07T00:53:17.749Z,-3.08
2024-01-07T00:55:46.764Z,-3.24
2024-01-07T00:58:15.900Z,-3.14
2024-01-07T01:00:44.885Z,-3.09
2024-01-07T01:03:14.199Z,-3.16
2024-01-07T01:05:44.724Z,-3.32
2024-01-07T01:08:13.942Z,-3.25
2024-01-07T01:10:42.668Z,-3.25
2024-01-07T01:13:12.156Z,-3.09
2024-01-07T01:15:40.973Z,-3.01
2024-01-07T01:18:10.146Z,-3.02
2024-01-07T01:20:39.050Z,-3.16
2024-01-07T01:23:09.501Z,-3.18
2024-01-07T01:25:40.956Z,-3.16
2024-01-07T01:28:10.188Z,-3.06
2024-01-07T01:30:39.103Z,-2.98
2024-01-07T01:33:08.257Z,-3.08
2024-01-07T01:35:37.180Z,-3.15
2024-01-07T01:38:07.969Z,-3.14
2024-01-07T01:40:37.009Z,-3.40
2024-01-07T01:43:06.566Z,-3.14
2024-01-07T01:45:35.483Z,-3.21
2024-01-07T01:48:04.979Z,-3.32
2024-01-07T01:50:34.135Z,-3.34
2024-01-07T01:53:03.460Z,-3.13
2024-01-07T01:55:34.609Z,-3.11
2024-01-07T01:58:06.255Z,-3.08
2024-01-07T02:00:35.369Z,-3.06
2024-01-07T02:03:04.793Z,-3.18
2024-01-07T02:05:34.081Z,-3.01
2024-01-07T02:08:03.525Z,-3.16
2024-01-07T02:10:35.921Z,-2.94
2024-01-07T02:13:05.884Z,-3.09
2024-01-07T02:15:35.799Z,-2.95
2024-01-07T02:18:05.565Z,-2.87
2024-01-07T02:20:34.454Z,-2.97
2024-01-07T02:23:03.753Z,-2.87
2024-01-07T02:25:38.744Z,-3.05
2024-01-07T02:28:08.464Z,-3.03
2024-01-07T02:30:37.368Z,-3.03
2024-01-07T02:33:07.307Z,-2.93
2024-01-07T02:35:36.129Z,-2.89
2024-01-07T02:38:05.594Z,-2.78
2024-01-07T02:40:34.413Z,-2.78
2024-01-07T02:43:05.297Z,-2.78
2024-01-07T02:45:34.195Z,-2.79
2024-01-07T02:48:04.885Z,-2.78
2024-01-07T02:50:34.543Z,-2.71
2024-01-07T02:53:03.639Z,-2.78
2024-01-07T02:55:32.534Z,-2.80
2024-01-07T02:58:01.670Z,-2.83
2024-01-07T03:00:31.967Z,-2.82
2024-01-07T03:03:01.211Z,-2.75
2024-01-07T03:05:33.824Z,-2.92
2024-01-07T03:08:03.121Z,-2.91
2024-01-07T03:10:31.877Z,-2.89
2024-01-07T03:13:01.021Z,-2.89
2024-01-07T03:15:31.402Z,-3.03
2024-01-07T03:18:00.499Z,-3.09
2024-01-07T03:20:29.484Z,-3.12
2024-01-07T03:22:59.204Z,-3.11
2024-01-07T03:25:28.037Z,-3.12
2024-01-07T03:27:57.212Z,-3.19
2024-01-07T03:30:26.345Z,-3.24
2024-01-07T03:32:57.063Z,-3.22
2024-01-07T03:35:25.958Z,-3.22
2024-01-07T03:37:55.141Z,-3.33
2024-01-07T03:40:24.076Z,-3.37
2024-01-07T03:42:53.324Z,-3.33
2024-01-07T03:45:21.415Z,-3.32
2024-01-07T03:47:50.752Z,-3.42
2024-01-07T03:50:21.067Z,-3.37
2024-01-07T03:52:50.199Z,-3.49
2024-01-07T03:55:19.037Z,-3.62
2024-01-07T03:57:48.232Z,-3.59
2024-01-07T04:00:17.571Z,-3.52
2024-01-07T04:02:46.800Z,-3.54
2024-01-07T04:05:16.437Z,-3.44
2024-01-07T04:07:46.910Z,-3.46
2024-01-07T04:10:15.891Z,-3.68
2024-01-07T04:12:45.538Z,-3.55
2024-01-07T04:15:14.702Z,-3.52
2024-01-07T04:17:43.969Z,-3.49
2024-01-07T04:20:16.245Z,-3.45
2024-01-07T04:22:46.697Z,-3.57
2024-01-07T04:25:15.674Z,-3.48
2024-01-07T04:27:44.739Z,-3.50
2024-01-07T04:30:14.364Z,-3.46
2024-01-07T04:32:43.607Z,-3.43
2024-01-07T04:35:12.379Z,-3.47
2024-01-07T04:37:41.466Z,-3.58
2024-01-07T04:40:13.791Z,-3.44
2024-01-07T04:42:42.939Z,-3.61
2024-01-07T04:45:11.853Z,-3.53
2024-01-07T04:47:40.970Z,-3.60
2024-01-07T04:50:10.600Z,-3.58
2024-01-07T04:52:39.615Z,-3.58
2024-01-07T04:55:10.936Z,-3.66
2024-01-07T04:57:41.420Z,-3.62
2024-01-07T05:00:11.859Z,-3.61
2024-01-07T05:02:41.216Z,-3.54
2024-01-07T05:05:11.234Z,-3.50
2024-01-07T05:07:40.559Z,-3.67
2024-01-07T05:10:10.387Z,-3.69
2024-01-07T05:12:41.048Z,-3.63
2024-01-07T05:15:11.374Z,-3.58
2024-01-07T05:17:40.564Z,-3.65
2024-01-07T05:20:11.357Z,-3.65
2024-01-07T05:22:40.587Z,-3.69
2024-01-07T05:25:10.403Z,-3.76
2024-01-07T05:27:41.060Z,-3.65
2024-01-07T05:30:10.495Z,-3.66
2024-01-07T05:32:39.748Z,-3.69
2024-01-07T05:35:09.812Z,-3.61
2024-01-07T05:37:38.954Z,-3.60
2024-01-07T05:40:09.861Z,-3.76
2024-01-07T05:42:40.457Z,-3.82
2024-01-07T05:45:10.173Z,-3.70
2024-01-07T05:47:39.388Z,-3.63
2024-01-07T05:50:08.701Z,-3.74
2024-01-07T05:52:37.704Z,-3.73
2024-01-07T05:55:08.508Z,-3.65
2024-01-07T05:57:37.575Z,-3.66
2024-01-07T06:00:09.884Z,-3.79
2024-01-07T06:02:41.891Z,-3.76
2024-01-07T06:05:11.363Z,-3.91
2024-01-07T06:07:40.813Z,-3.72
2024-01-07T06:10:11.009Z,-3.71
2024-01-07T06:12:40.169Z,-3.68
2024-01-07T06:15:11.502Z,-3.80
2024-01-07T06:17:40.598Z,-3.74
2024-01-07T06:20:10.750Z,-3.78
2024-01-07T06:22:39.857Z,-3.79
2024-01-07T06:25:11.476Z,-3.82
2024-01-07T06:27:42.510Z,-3.76
2024-01-07T06:30:14.754Z,-4.04
2024-01-07T06:32:43.884Z,-4.08
2024-01-07T06:35:12.638Z,-3.96
2024-01-07T06:37:41.683Z,-3.99
2024-01-07T06:40:12.872Z,-3.86
2024-01-07T06:42:43.196Z,-3.90
2024-01-07T06:45:13.626Z,-3.85
2024-01-07T06:47:43.000Z,-3.82
2024-01-07T06:50:12.740Z,-3.95
2024-01-07T06:52:41.931Z,-3.90
2024-01-07T06:55:11.191Z,-4.16
2024-01-07T06:57:40.526Z,-3.95
2024-01-07T07:00:10.569Z,-3.99
2024-01-07T07:02:42.279Z,-3.89
2024-01-07T07:05:11.389Z,-3.85
2024-01-07T07:07:41.282Z,-3.78
2024-01-07T07:10:11.252Z,-3.74
2024-01-07T07:12:40.535Z,-3.81
2024-01-07T07:15:10.836Z,-3.74
2024-01-07T07:17:41.751Z,-3.84
2024-01-07T07:20:12.014Z,-3.93
2024-01-07T07:22:41.488Z,-4.02
2024-01-07T07:25:11.056Z,-3.84
2024-01-07T07:27:40.155Z,-3.91
2024-01-07T07:30:10.065Z,-3.85
2024-01-07T07:32:43.558Z,-3.74
2024-01-07T07:35:12.534Z,-3.84
2024-01-07T07:37:41.571Z,-3.87
2024-01-07T07:40:13.108Z,-3.80
2024-01-07T07:42:42.516Z,-3.81
2024-01-07T07:45:12.442Z,-3.89
2024-01-07T07:47:46.195Z,-3.89
2024-01-07T07:50:15.579Z,-3.69
2024-01-07T07:52:45.896Z,-3.65
2024-01-07T07:55:14.776Z,-3.63
2024-01-07T07:57:43.940Z,-3.51
2024-01-07T08:00:14.968Z,-3.56
2024-01-07T08:02:45.775Z,-3.61
2024-01-07T08:05:15.260Z,-3.58
2024-01-07T08:07:44.742Z,-3.66
2024-01-07T08:10:13.759Z,-3.92
2024-01-07T08:12:42.912Z,-3.74
2024-01-07T08:15:12.464Z,-3.57
2024-01-07T08:17:41.787Z,-3.54
2024-01-07T08:20:13.983Z,-3.59
2024-01-07T08:22:43.147Z,-3.50
2024-01-07T08:25:12.521Z,-3.55
2024-01-07T08:27:43.550Z,-3.43
2024-01-07T08:30:14.910Z,-3.58
2024-01-07T08:32:44.762Z,-3.57
2024-01-07T08:35:17.051Z,-3.62
2024-01-07T08:37:47.662Z,-3.45
2024-01-07T08:40:18.277Z,-3.46
2024-01-07T08:42:47.505Z,-3.47
2024-01-07T08:45:16.735Z,-3.46
2024-01-07T08:47:46.267Z,-3.43
2024-01-07T08:50:16.806Z,-3.47
2024-01-07T08:52:47.652Z,-3.41
2024-01-07T08:55:16.913Z,-3.40
2024-01-07T08:57:50.387Z,-3.31
2024-01-07T09:00:20.696Z,-3.42
2024-01-07T09:02:49.975Z,-3.46
2024-01-07T09:05:20.414Z,-3.55
2024-01-07T09:07:49.471Z,-3.48
2024-01-07T09:10:20.176Z,-3.52
2024-01-07T09:12:50.947Z,-3.73
2024-01-07T09:15:22.139Z,-3.67
2024-01-07T09:17:51.417Z,-3.47
2024-01-07T09:20:21.756Z,-3.47
2024-01-07T09:22:50.991Z,-3.29
2024-01-07T09:25:20.052Z,-3.31
2024-01-07T09:27:49.276Z,-3.38
2024-01-07T09:30:18.930Z,-3.48
2024-01-07T09:32:48.022Z,-3.32
2024-01-07T09:35:17.127Z,-3.20
2024-01-07T09:37:47.592Z,-3.48
2024-01-07T09:40:20.906Z,-3.52
2024-01-07T09:42:50.521Z,-3.47
2024-01-07T09:45:23.547Z,-3.33
2024-01-07T09:47:52.974Z,-3.36
2024-01-07T09:50:22.117Z,-3.17
2024-01-07T09:52:59.156Z,-3.25
2024-01-07T09:55:36.339Z,-3.14
2024-01-07T09:58:06.232Z,-3.08
2024-01-07T10:00:35.905Z,-3.28
2024-01-07T10:03:05.578Z,-3.19
2024-01-07T10:05:34.624Z,-3.06
2024-01-07T10:08:05.607Z,-3.27
2024-01-07T10:10:37.388Z,-3.33
2024-01-07T10:13:06.646Z,-3.36
2024-01-07T10:15:35.590Z,-3.29
2024-01-07T10:18:07.538Z,-3.15
2024-01-07T10:20:36.961Z,-3.31
2024-01-07T10:23:09.123Z,-3.33
2024-01-07T10:25:38.812Z,-3.40
2024-01-07T10:28:07.926Z,-3.34
2024-01-07T10:30:36.869Z,-3.32
2024-01-07T10:33:07.506Z,-3.06
2024-01-07T10:35:39.950Z,-3.09
2024-01-07T10:38:10.584Z,-3.22
2024-01-07T10:40:41.075Z,-3.25
2024-01-07T10:43:11.291Z,-3.46
2024-01-07T10:45:40.344Z,-3.42
2024-01-07T10:48:13.008Z,-3.47
2024-01-07T10:50:43.720Z,-3.47
2024-01-07T10:53:20.995Z,-3.32
2024-01-07T10:56:00.757Z,-3.28
2024-01-07T10:58:30.325Z,-3.31
2024-01-07T11:01:01.301Z,-3.30
2024-01-07T11:03:40.727Z,-3.29
2024-01-07T11:06:22.557Z,-3.32
2024-01-07T11:09:01.277Z,-3.40
2024-01-07T11:11:42.552Z,-3.28
2024-01-07T11:14:38.808Z,-3.04
2024-01-07T11:17:08.513Z,-2.99
2024-01-07T11:19:38.535Z,-3.08
2024-01-07T11:22:29.591Z,-3.00
2024-01-07T11:25:02.979Z,-3.07
2024-01-07T11:27:33.588Z,-3.15
2024-01-07T11:30:11.234Z,-3.12
2024-01-07T11:32:42.164Z,-3.12
2024-01-07T11:35:11.516Z,-3.18
2024-01-07T11:37:40.279Z,-3.11
2024-01-07T11:40:12.754Z,-3.19
2024-01-07T11:42:41.749Z,-3.22
2024-01-07T11:45:12.229Z,-3.24
2024-01-07T11:47:41.214Z,-3.08
2024-01-07T11:50:10.820Z,-3.18
2024-01-07T11:52:40.371Z,-3.06
2024-01-07T11:55:12.018Z,-3.03
2024-01-07T11:57:40.861Z,-3.03
2024-01-07T12:00:11.782Z,-3.07
2024-01-07T12:02:43.414Z,-3.13
2024-01-07T12:05:14.115Z,-3.10
2024-01-07T12:07:43.513Z,-3.20
2024-01-07T12:10:15.350Z,-3.19
2024-01-07T12:12:44.960Z,-3.25
2024-01-07T12:15:15.940Z,-3.21
2024-01-07T12:17:45.253Z,-3.27
2024-01-07T12:20:14.389Z,-3.41
2024-01-07T12:22:43.190Z,-3.45
2024-01-07T12:25:13.964Z,-3.38
2024-01-07T12:27:44.802Z,-3.49
2024-01-07T12:30:15.166Z,-3.35
2024-01-07T12:32:43.148Z,-3.42
2024-01-07T12:35:12.583Z,-3.57
2024-01-07T12:37:41.530Z,-3.51
2024-01-07T12:40:14.047Z,-4.05
2024-01-07T12:42:46.294Z,-3.80
2024-01-07T12:45:16.828Z,-3.64
2024-01-07T12:47:46.980Z,-3.58
2024-01-07T12:50:17.159Z,-3.65
2024-01-07T12:52:46.760Z,-3.54
2024-01-07T12:55:17.372Z,-3.46
2024-01-07T12:57:46.390Z,-3.60
2024-01-07T13:00:16.924Z,-3.64
2024-01-07T13:02:46.005Z,-3.51
2024-01-07T13:05:15.908Z,-3.74
2024-01-07T13:07:45.206Z,-3.62
2024-01-07T13:10:14.527Z,-3.59
2024-01-07T13:12:48.991Z,-3.55
2024-01-07T13:15:20.131Z,-3.89
2024-01-07T13:17:49.470Z,-3.84
2024-01-07T13:20:21.409Z,-3.79
2024-01-07T13:22:50.538Z,-3.81
2024-01-07T13:25:19.909Z,-3.73
2024-01-07T13:27:50.238Z,-3.80
2024-01-07T13:30:19.714Z,-3.69
2024-01-07T13:32:50.879Z,-3.68
2024-01-07T13:35:20.236Z,-3.78
2024-01-07T13:37:49.150Z,-3.84
2024-01-07T13:40:20.390Z,-3.82
2024-01-07T13:42:52.493Z,-3.97
2024-01-07T13:45:23.904Z,-3.92
2024-01-07T13:47:52.933Z,-3.97
2024-01-07T13:50:22.181Z,-3.93
2024-01-07T13:52:51.138Z,-3.94
2024-01-07T13:55:20.753Z,-3.94
2024-01-07T13:57:51.177Z,-3.96
2024-01-07T14:00:20.671Z,-3.87
2024-01-07T14:02:50.577Z,-3.96
2024-01-07T14:05:20.812Z,-4.05
2024-01-07T14:07:49.953Z,-4.08
2024-01-07T14:10:21.004Z,-4.09
2024-01-07T14:12:51.322Z,-4.39
2024-01-07T14:15:20.541Z,-4.22
2024-01-07T14:17:50.364Z,-4.34
2024-01-07T14:20:19.568Z,-4.25
2024-01-07T14:22:48.403Z,-4.31
2024-01-07T14:25:17.814Z,-4.36
2024-01-07T14:27:47.193Z,-4.40
2024-01-07T14:30:18.170Z,-4.31
2024-01-07T14:32:47.036Z,-4.13
2024-01-07T14:35:16.388Z,-4.11
2024-01-07T14:37:45.522Z,-4.09
2024-01-07T14:40:15.124Z,-4.05
2024-01-07T14:42:45.143Z,-4.19
2024-01-07T14:45:14.353Z,-4.20
2024-01-07T14:47:44.709Z,-4.26
2024-01-07T14:50:15.746Z,-4.58
2024-01-07T14:52:44.672Z,-4.36
2024-01-07T14:55:14.319Z,-4.25
2024-01-07T14:57:43.418Z,-4.34
2024-01-07T15:00:13.279Z,-4.51
2024-01-07T15:02:43.506Z,-4.33
2024-01-07T15:05:12.918Z,-4.18
2024-01-07T15:07:42.136Z,-4.11
2024-01-07T15:10:11.692Z,-4.39
2024-01-07T15:12:45.320Z,-4.31
2024-01-07T15:15:20.068Z,-4.59
2024-01-07T15:17:50.562Z,-4.71
2024-01-07T15:20:19.894Z,-4.83
2024-01-07T15:22:50.285Z,-4.78
2024-01-07T15:25:21.278Z,-4.74
2024-01-07T15:27:50.271Z,-4.81
2024-01-07T15:30:19.703Z,-4.70
2024-01-07T15:32:50.302Z,-4.62
2024-01-07T15:35:19.609Z,-4.70
2024-01-07T15:37:50.019Z,-4.85
2024-01-07T15:40:19.619Z,-4.97
2024-01-07T15:42:49.035Z,-5.30
2024-01-07T15:45:18.413Z,-5.09
2024-01-07T15:47:48.011Z,-5.32
2024-01-07T15:50:18.749Z,-5.37
2024-01-07T15:52:50.083Z,-5.24
2024-01-07T15:55:20.115Z,-5.37
2024-01-07T15:57:49.407Z,-5.49
2024-01-07T16:00:19.872Z,-5.49
2024-01-07T16:02:48.978Z,-5.55
2024-01-07T16:05:19.786Z,-5.33
2024-01-07T16:07:49.129Z,-5.23
2024-01-07T16:10:18.528Z,-5.17
2024-01-07T16:12:47.553Z,-5.14
2024-01-07T16:15:16.995Z,-5.15
2024-01-07T16:17:46.197Z,-5.23
2024-01-07T16:20:15.728Z,-5.22
2024-01-07T16:22:46.227Z,-5.23
2024-01-07T16:25:15.559Z,-5.47
2024-01-07T16:27:44.572Z,-5.38
2024-01-07T16:30:14.725Z,-5.58
2024-01-07T16:32:45.793Z,-5.47
2024-01-07T16:35:14.959Z,-5.57
2024-01-07T16:37:45.089Z,-5.53
2024-01-07T16:40:14.501Z,-5.36
2024-01-07T16:42:44.910Z,-5.45
2024-01-07T16:45:14.691Z,-5.52
2024-01-07T16:47:43.583Z,-5.48
2024-01-07T16:50:21.839Z,-5.57
2024-01-07T16:52:55.261Z,-5.54
2024-01-07T16:55:24.554Z,-5.39
2024-01-07T16:57:53.787Z,-5.45
2024-01-07T17:00:24.326Z,-5.48
2024-01-07T17:02:53.278Z,-5.80
2024-01-07T17:05:22.617Z,-5.77
2024-01-07T17:07:51.428Z,-5.85
2024-01-07T17:10:22.590Z,-5.86
2024-01-07T17:12:51.422Z,-5.89
2024-01-07T17:15:21.829Z,-6.08
2024-01-07T17:17:51.743Z,-6.26
2024-01-07T17:20:21.383Z,-6.08
2024-01-07T17:22:50.270Z,-6.44
2024-01-07T17:25:21.046Z,-6.13
2024-01-07T17:27:51.157Z,-6.13
2024-01-07T17:30:20.519Z,-6.11
2024-01-07T17:32:53.227Z,-6.47
2024-01-07T17:35:26.043Z,-6.21
2024-01-07T17:37:54.869Z,-6.13
2024-01-07T17:40:25.518Z,-6.29
2024-01-07T17:42:54.958Z,-6.17
2024-01-07T17:45:24.995Z,-6.36
2024-01-07T17:47:54.452Z,-6.47
2024-01-07T17:50:23.895Z,-6.53
2024-01-07T17:52:52.842Z,-6.73
2024-01-07T17:55:21.912Z,-6.58
2024-01-07T17:57:52.476Z,-6.57
2024-01-07T18:00:23.903Z,-6.85
2024-01-07T18:02:52.891Z,-6.65
2024-01-07T18:05:22.333Z,-6.79
2024-01-07T18:07:51.482Z,-6.64
2024-01-07T18:10:20.851Z,-6.70
2024-01-07T18:12:51.300Z,-6.60
2024-01-07T18:15:20.577Z,-6.84
2024-01-07T18:17:49.695Z,-6.66
2024-01-07T18:20:19.568Z,-6.61
2024-01-07T18:22:49.155Z,-6.55
2024-01-07T18:25:18.607Z,-6.61
2024-01-07T18:27:47.675Z,-6.80
2024-01-07T18:30:18.333Z,-6.63
2024-01-07T18:32:47.402Z,-6.85
2024-01-07T18:35:20.891Z,-6.70
2024-01-07T18:37:51.743Z,-6.69
2024-01-07T18:40:21.508Z,-6.63
2024-01-07T18:42:50.466Z,-6.70
2024-01-07T18:45:24.037Z,-6.80
2024-01-07T18:47:53.257Z,-6.87
2024-01-07T18:50:22.416Z,-6.96
2024-01-07T18:52:51.784Z,-6.96
2024-01-07T18:55:21.553Z,-6.82
2024-01-07T18:57:50.854Z,-6.87
2024-01-07T19:00:21.767Z,-6.92
2024-01-07T19:02:50.685Z,-7.03
2024-01-07T19:05:20.217Z,-7.04
2024-01-07T19:07:49.415Z,-7.22
2024-01-07T19:10:18.945Z,-7.20
2024-01-07T19:12:47.854Z,-7.05
2024-01-07T19:15:18.770Z,-7.29
2024-01-07T19:17:50.600Z,-7.22
2024-01-07T19:20:20.465Z,-7.40
2024-01-07T19:22:49.390Z,-7.40
2024-01-07T19:25:18.539Z,-7.32
2024-01-07T19:27:47.456Z,-7.30
2024-01-07T19:30:16.730Z,-7.61
2024-01-07T19:32:46.784Z,-7.53
2024-01-07T19:35:18.187Z,-7.43
2024-01-07T19:37:47.184Z,-7.30
2024-01-07T19:40:16.896Z,-7.13
2024-01-07T19:42:47.112Z,-7.18
2024-01-07T19:45:16.301Z,-7.05
2024-01-07T19:47:45.234Z,-7.31
2024-01-07T19:50:14.988Z,-7.28
2024-01-07T19:52:47.387Z,-7.16
2024-01-07T19:55:16.931Z,-7.06
2024-01-07T19:57:46.206Z,-7.11
2024-01-07T20:00:16.073Z,-7.41
2024-01-07T20:02:50.073Z,-7.44
2024-01-07T20:05:20.198Z,-7.44
2024-01-07T20:07:50.570Z,-7.60
2024-01-07T20:10:19.946Z,-7.76
2024-01-07T20:12:49.397Z,-7.58
2024-01-07T20:15:20.012Z,-7.46
2024-01-07T20:17:48.867Z,-7.51
2024-01-07T20:20:18.557Z,-7.42
2024-01-07T20:22:47.546Z,-7.29
2024-01-07T20:25:18.283Z,-7.39
2024-01-07T20:27:47.177Z,-7.47
2024-01-07T20:30:17.096Z,-7.46
2024-01-07T20:32:46.267Z,-7.36
2024-01-07T20:35:15.596Z,-7.56
2024-01-07T20:37:46.550Z,-7.43
2024-01-07T20:40:17.426Z,-7.54
2024-01-07T20:42:46.393Z,-7.65
2024-01-07T20:45:15.796Z,-7.34
2024-01-07T20:47:46.517Z,-7.55
2024-01-07T20:50:16.022Z,-7.57
2024-01-07T20:52:47.130Z,-7.39
2024-01-07T20:55:17.866Z,-7.46
2024-01-07T20:57:47.977Z,-7.51
2024-01-07T21:00:18.948Z,-7.32
2024-01-07T21:02:48.431Z,-7.31
2024-01-07T21:05:20.357Z,-7.38
2024-01-07T21:07:49.960Z,-7.36
2024-01-07T21:10:20.650Z,-7.39
2024-01-07T21:12:49.756Z,-7.33
2024-01-07T21:15:19.133Z,-7.54
2024-01-07T21:17:48.156Z,-7.65
2024-01-07T21:20:17.700Z,-7.63
2024-01-07T21:22:46.938Z,-7.63
2024-01-07T21:25:17.759Z,-7.54
2024-01-07T21:27:48.130Z,-7.66
2024-01-07T21:30:17.874Z,-7.66
2024-01-07T21:32:46.994Z,-7.56
2024-01-07T21:35:17.783Z,-7.67
2024-01-07T21:37:47.148Z,-7.56
2024-01-07T21:40:17.114Z,-7.49
2024-01-07T21:42:47.305Z,-7.44
2024-01-07T21:45:16.447Z,-7.32
2024-01-07T21:47:45.339Z,-7.27
2024-01-07T21:50:15.431Z,-7.30
2024-01-07T21:52:55.069Z,-7.30
2024-01-07T21:55:24.761Z,-7.31
2024-01-07T21:57:55.972Z,-7.13
2024-01-07T22:00:25.260Z,-7.12
2024-01-07T22:02:54.189Z,-7.18
2024-01-07T22:05:23.468Z,-7.11
2024-01-07T22:07:52.382Z,-7.13
2024-01-07T22:10:21.504Z,-7.12
2024-01-07T22:12:50.405Z,-7.04
2024-01-07T22:15:20.932Z,-7.14
2024-01-07T22:17:49.854Z,-7.13
2024-01-07T22:20:19.220Z,-7.10
2024-01-07T22:22:48.193Z,-7.31
2024-01-07T22:25:17.604Z,-7.20
2024-01-07T22:27:46.515Z,-7.47
2024-01-07T22:30:16.482Z,-7.43
2024-01-07T22:32:47.758Z,-7.34
2024-01-07T22:35:17.116Z,-7.32
2024-01-07T22:37:46.004Z,-7.35
2024-01-07T22:40:15.312Z,-7.35
2024-01-07T22:42:44.218Z,-7.39
2024-01-07T22:45:13.553Z,-7.23
2024-01-07T22:47:42.504Z,-7.39
2024-01-07T22:50:13.152Z,-7.38
2024-01-07T22:52:41.956Z,-7.30
2024-01-07T22:55:11.707Z,-7.47
2024-01-07T22:57:40.630Z,-7.58
2024-01-07T23:00:15.981Z,-7.29
2024-01-07T23:02:45.052Z,-7.43
2024-01-07T23:05:16.015Z,-7.23
2024-01-07T23:07:44.978Z,-7.29
2024-01-07T23:10:15.770Z,-7.10
2024-01-07T23:12:45.470Z,-7.22
2024-01-07T23:15:16.149Z,-7.08
2024-01-07T23:17:45.536Z,-6.97
2024-01-07T23:20:16.666Z,-7.05
2024-01-07T23:22:45.521Z,-7.04
2024-01-07T23:25:14.702Z,-7.03
2024-01-07T23:27:43.614Z,-7.00
2024-01-07T23:30:13.914Z,-7.03
2024-01-07T23:32:42.943Z,-7.15
2024-01-07T23:35:12.620Z,-7.13
2024-01-07T23:37:42.914Z,-7.05
2024-01-07T23:40:12.922Z,-6.96
2024-01-07T23:42:41.816Z,-6.90
2024-01-07T23:45:11.242Z,-6.79
2024-01-07T23:47:40.337Z,-6.74
2024-01-07T23:50:10.413Z,-6.70
2024-01-07T23:52:42.344Z,-6.81
2024-01-07T23:55:11.441Z,-7.09
2024-01-07T23:57:40.635Z,-7.09
